sensor_id;sensor_type;location;lat;lon;timestamp;pressure;altitude;pressure_sealevel;temperature;humidity
47280;BME280;34064;44.942;0.008;2023-07-22T00:01:41;98967.19;;;20.98;49.69
47280;BME280;34064;44.942;0.008;2023-07-22T00:04:08;98970.44;;;20.94;49.84
47280;BME280;34064;44.942;0.008;2023-07-22T00:06:34;98974.53;;;20.90;50.14
47280;BME280;34064;44.942;0.008;2023-07-22T00:09:01;98979.59;;;20.84;49.97
47280;BME280;34064;44.942;0.008;2023-07-22T00:11:29;98969.34;;;20.80;50.14
47280;BME280;34064;44.942;0.008;2023-07-22T00:13:55;98967.19;;;20.75;50.03
47280;BME280;34064;44.942;0.008;2023-07-22T00:16:21;98971.59;;;20.68;50.10
47280;BME280;34064;44.942;0.008;2023-07-22T00:18:47;98968.13;;;20.59;50.14
47280;BME280;34064;44.942;0.008;2023-07-22T00:21:13;98973.75;;;20.49;50.39
47280;BME280;34064;44.942;0.008;2023-07-22T00:23:40;98970.56;;;20.46;50.02
47280;BME280;34064;44.942;0.008;2023-07-22T00:26:06;98972.94;;;20.40;50.13
47280;BME280;34064;44.942;0.008;2023-07-22T00:28:33;98965.22;;;20.37;50.53
47280;BME280;34064;44.942;0.008;2023-07-22T00:31:01;98968.44;;;20.33;50.38
47280;BME280;34064;44.942;0.008;2023-07-22T00:33:29;98964.25;;;20.30;50.35
47280;BME280;34064;44.942;0.008;2023-07-22T00:35:55;98974.53;;;20.26;50.35
47280;BME280;34064;44.942;0.008;2023-07-22T00:38:21;98974.03;;;20.23;50.53
47280;BME280;34064;44.942;0.008;2023-07-22T00:40:48;98970.19;;;20.17;50.84
47280;BME280;34064;44.942;0.008;2023-07-22T00:43:14;98968.69;;;20.15;50.79
47280;BME280;34064;44.942;0.008;2023-07-22T00:45:40;98960.13;;;20.11;50.89
47280;BME280;34064;44.942;0.008;2023-07-22T00:48:06;98967.72;;;20.07;51.04
47280;BME280;34064;44.942;0.008;2023-07-22T00:50:34;98961.84;;;20.04;50.76
47280;BME280;34064;44.942;0.008;2023-07-22T00:53:01;98959.31;;;20.02;50.70
47280;BME280;34064;44.942;0.008;2023-07-22T00:55:27;98956.13;;;19.99;50.83
47280;BME280;34064;44.942;0.008;2023-07-22T00:57:54;98966.78;;;19.92;50.91
47280;BME280;34064;44.942;0.008;2023-07-22T01:00:20;98967.28;;;19.87;50.78
47280;BME280;34064;44.942;0.008;2023-07-22T01:02:46;98962.91;;;19.78;50.73
47280;BME280;34064;44.942;0.008;2023-07-22T01:05:12;98972.72;;;19.62;51.39
47280;BME280;34064;44.942;0.008;2023-07-22T01:07:39;98973.41;;;19.56;51.33
47280;BME280;34064;44.942;0.008;2023-07-22T01:10:05;98976.94;;;19.48;51.44
47280;BME280;34064;44.942;0.008;2023-07-22T01:12:32;98981.16;;;19.43;51.44
47280;BME280;34064;44.942;0.008;2023-07-22T01:14:58;98984.38;;;19.38;51.92
47280;BME280;34064;44.942;0.008;2023-07-22T01:17:25;98979.34;;;19.35;51.51
47280;BME280;34064;44.942;0.008;2023-07-22T01:19:51;98991.28;;;19.32;51.98
47280;BME280;34064;44.942;0.008;2023-07-22T01:22:17;98985.22;;;19.30;51.95
47280;BME280;34064;44.942;0.008;2023-07-22T01:24:44;98987.25;;;19.28;52.00
47280;BME280;34064;44.942;0.008;2023-07-22T01:27:11;98982.88;;;19.27;51.79
47280;BME280;34064;44.942;0.008;2023-07-22T01:29:38;98983.03;;;19.26;51.68
47280;BME280;34064;44.942;0.008;2023-07-22T01:32:04;98986.25;;;19.21;51.64
47280;BME280;34064;44.942;0.008;2023-07-22T01:34:31;98980.19;;;19.19;51.64
47280;BME280;34064;44.942;0.008;2023-07-22T01:36:57;98989.59;;;19.15;51.88
47280;BME280;34064;44.942;0.008;2023-07-22T01:39:23;98988.41;;;19.09;51.66
47280;BME280;34064;44.942;0.008;2023-07-22T01:41:49;98987.91;;;18.97;51.92
47280;BME280;34064;44.942;0.008;2023-07-22T01:44:16;98984.88;;;18.92;52.08
47280;BME280;34064;44.942;0.008;2023-07-22T01:46:42;98989.56;;;18.90;52.23
47280;BME280;34064;44.942;0.008;2023-07-22T01:49:10;98984.19;;;18.90;51.88
47280;BME280;34064;44.942;0.008;2023-07-22T01:51:37;98983.81;;;18.85;52.12
47280;BME280;34064;44.942;0.008;2023-07-22T01:54:08;98977.44;;;18.86;51.96
47280;BME280;34064;44.942;0.008;2023-07-22T01:56:36;98981.13;;;18.85;51.89
47280;BME280;34064;44.942;0.008;2023-07-22T01:59:02;98975.09;;;18.83;51.79
47280;BME280;34064;44.942;0.008;2023-07-22T02:01:28;98979.81;;;18.81;51.78
47280;BME280;34064;44.942;0.008;2023-07-22T02:03:55;98974.75;;;18.78;51.85
47280;BME280;34064;44.942;0.008;2023-07-22T02:06:22;98975.09;;;18.75;52.07
47280;BME280;34064;44.942;0.008;2023-07-22T02:08:49;98977.78;;;18.75;51.95
47280;BME280;34064;44.942;0.008;2023-07-22T02:11:16;98972.91;;;18.70;52.33
47280;BME280;34064;44.942;0.008;2023-07-22T02:13:42;98973.06;;;18.68;52.18
47280;BME280;34064;44.942;0.008;2023-07-22T02:16:08;98968.66;;;18.67;52.13
47280;BME280;34064;44.942;0.008;2023-07-22T02:18:37;98973.41;;;18.65;52.26
47280;BME280;34064;44.942;0.008;2023-07-22T02:21:03;98963.13;;;18.61;52.30
47280;BME280;34064;44.942;0.008;2023-07-22T02:23:29;98964.28;;;18.58;52.20
47280;BME280;34064;44.942;0.008;2023-07-22T02:25:55;98963.78;;;18.54;52.17
47280;BME280;34064;44.942;0.008;2023-07-22T02:28:22;98953.19;;;18.53;52.01
47280;BME280;34064;44.942;0.008;2023-07-22T02:30:50;98953.50;;;18.50;52.05
47280;BME280;34064;44.942;0.008;2023-07-22T02:33:18;98956.53;;;18.47;52.04
47280;BME280;34064;44.942;0.008;2023-07-22T02:35:45;98953.50;;;18.42;52.29
47280;BME280;34064;44.942;0.008;2023-07-22T02:38:12;98943.06;;;18.38;52.12
47280;BME280;34064;44.942;0.008;2023-07-22T02:40:41;98949.94;;;18.33;52.33
47280;BME280;34064;44.942;0.008;2023-07-22T02:43:09;98951.09;;;18.30;52.19
47280;BME280;34064;44.942;0.008;2023-07-22T02:45:37;98947.09;;;18.26;52.18
47280;BME280;34064;44.942;0.008;2023-07-22T02:48:04;98952.09;;;18.21;52.27
47280;BME280;34064;44.942;0.008;2023-07-22T02:50:30;98949.06;;;18.16;52.00
47280;BME280;34064;44.942;0.008;2023-07-22T02:52:57;98952.25;;;18.11;52.19
47280;BME280;34064;44.942;0.008;2023-07-22T02:55:23;98956.25;;;18.07;52.08
47280;BME280;34064;44.942;0.008;2023-07-22T02:57:49;98948.66;;;18.02;52.27
47280;BME280;34064;44.942;0.008;2023-07-22T03:00:16;98945.28;;;18.00;52.34
47280;BME280;34064;44.942;0.008;2023-07-22T03:02:49;98946.47;;;17.98;52.41
47280;BME280;34064;44.942;0.008;2023-07-22T03:05:18;98942.09;;;17.97;52.56
47280;BME280;34064;44.942;0.008;2023-07-22T03:07:45;98936.84;;;17.95;52.44
47280;BME280;34064;44.942;0.008;2023-07-22T03:10:11;98937.34;;;17.90;52.56
47280;BME280;34064;44.942;0.008;2023-07-22T03:12:38;98937.50;;;17.89;52.71
47280;BME280;34064;44.942;0.008;2023-07-22T03:15:04;98935.84;;;17.88;52.96
47280;BME280;34064;44.942;0.008;2023-07-22T03:17:31;98942.38;;;17.85;52.61
47280;BME280;34064;44.942;0.008;2023-07-22T03:19:57;98950.88;;;17.81;52.76
47280;BME280;34064;44.942;0.008;2023-07-22T03:22:23;98948.84;;;17.74;53.03
47280;BME280;34064;44.942;0.008;2023-07-22T03:24:49;98942.78;;;17.72;53.07
47280;BME280;34064;44.942;0.008;2023-07-22T03:27:16;98949.16;;;17.71;53.17
47280;BME280;34064;44.942;0.008;2023-07-22T03:29:43;98944.66;;;17.72;53.05
47280;BME280;34064;44.942;0.008;2023-07-22T03:32:09;98946.16;;;17.74;53.04
47280;BME280;34064;44.942;0.008;2023-07-22T03:34:36;98947.34;;;17.72;53.11
47280;BME280;34064;44.942;0.008;2023-07-22T03:37:05;98942.78;;;17.72;53.31
47280;BME280;34064;44.942;0.008;2023-07-22T03:39:32;98951.84;;;17.71;53.18
47280;BME280;34064;44.942;0.008;2023-07-22T03:41:58;98945.66;;;17.71;53.06
47280;BME280;34064;44.942;0.008;2023-07-22T03:44:24;98952.19;;;17.68;53.27
47280;BME280;34064;44.942;0.008;2023-07-22T03:46:51;98943.13;;;17.69;53.08
47280;BME280;34064;44.942;0.008;2023-07-22T03:49:18;98946.47;;;17.71;53.03
47280;BME280;34064;44.942;0.008;2023-07-22T03:51:44;98946.16;;;17.74;53.08
47280;BME280;34064;44.942;0.008;2023-07-22T03:54:10;98938.78;;;17.76;53.02
47280;BME280;34064;44.942;0.008;2023-07-22T03:56:37;98939.63;;;17.77;53.07
47280;BME280;34064;44.942;0.008;2023-07-22T03:59:04;98944.00;;;17.78;53.31
47280;BME280;34064;44.942;0.008;2023-07-22T04:01:33;98944.16;;;17.76;53.36
47280;BME280;34064;44.942;0.008;2023-07-22T04:04:01;98948.03;;;17.74;53.06
47280;BME280;34064;44.942;0.008;2023-07-22T04:06:31;98950.13;;;17.62;53.04
47280;BME280;34064;44.942;0.008;2023-07-22T04:08:57;98959.78;;;17.46;53.32
47280;BME280;34064;44.942;0.008;2023-07-22T04:11:26;98973.16;;;17.38;53.41
47280;BME280;34064;44.942;0.008;2023-07-22T04:13:53;98974.63;;;17.33;53.31
47280;BME280;34064;44.942;0.008;2023-07-22T04:16:19;98980.09;;;17.23;54.08
47280;BME280;34064;44.942;0.008;2023-07-22T04:18:45;98988.81;;;17.25;53.48
47280;BME280;34064;44.942;0.008;2023-07-22T04:21:11;98996.22;;;17.23;53.45
47280;BME280;34064;44.942;0.008;2023-07-22T04:23:38;99003.34;;;17.14;53.54
47280;BME280;34064;44.942;0.008;2023-07-22T04:26:04;99008.16;;;17.10;53.66
47280;BME280;34064;44.942;0.008;2023-07-22T04:28:36;99019.22;;;17.07;53.58
47280;BME280;34064;44.942;0.008;2023-07-22T04:31:02;99023.06;;;17.05;53.74
47280;BME280;34064;44.942;0.008;2023-07-22T04:33:29;99023.81;;;16.97;54.20
47280;BME280;34064;44.942;0.008;2023-07-22T04:35:57;99021.81;;;16.99;53.87
47280;BME280;34064;44.942;0.008;2023-07-22T04:38:24;99020.13;;;16.98;54.03
47280;BME280;34064;44.942;0.008;2023-07-22T04:40:50;99026.34;;;16.98;53.91
47280;BME280;34064;44.942;0.008;2023-07-22T04:43:16;99024.50;;;16.99;53.87
47280;BME280;34064;44.942;0.008;2023-07-22T04:45:46;99020.00;;;16.99;53.87
47280;BME280;34064;44.942;0.008;2023-07-22T04:48:15;99013.06;;;16.97;54.02
47280;BME280;34064;44.942;0.008;2023-07-22T04:50:42;99017.44;;;16.98;54.15
47280;BME280;34064;44.942;0.008;2023-07-22T04:53:11;99013.59;;;17.00;53.82
47280;BME280;34064;44.942;0.008;2023-07-22T04:55:39;99005.41;;;17.02;54.36
47280;BME280;34064;44.942;0.008;2023-07-22T04:58:05;99012.47;;;17.03;54.30
47280;BME280;34064;44.942;0.008;2023-07-22T05:00:32;99014.16;;;17.04;54.35
47280;BME280;34064;44.942;0.008;2023-07-22T05:02:59;99006.78;;;17.06;54.15
47280;BME280;34064;44.942;0.008;2023-07-22T05:05:25;99013.31;;;17.04;54.44
47280;BME280;34064;44.942;0.008;2023-07-22T05:07:52;99017.53;;;17.06;54.26
47280;BME280;34064;44.942;0.008;2023-07-22T05:10:18;99027.88;;;17.01;54.20
47280;BME280;34064;44.942;0.008;2023-07-22T05:12:45;99030.34;;;16.94;54.31
47280;BME280;34064;44.942;0.008;2023-07-22T05:15:11;99035.81;;;16.93;54.50
47280;BME280;34064;44.942;0.008;2023-07-22T05:17:38;99032.72;;;16.97;54.17
47280;BME280;34064;44.942;0.008;2023-07-22T05:20:04;99030.56;;;17.01;54.39
47280;BME280;34064;44.942;0.008;2023-07-22T05:22:37;99023.06;;;17.05;54.45
47280;BME280;34064;44.942;0.008;2023-07-22T05:25:04;99023.41;;;17.10;54.13
47280;BME280;34064;44.942;0.008;2023-07-22T05:27:31;99023.41;;;17.10;54.41
47280;BME280;34064;44.942;0.008;2023-07-22T05:29:57;99016.75;;;17.14;54.16
47280;BME280;34064;44.942;0.008;2023-07-22T05:32:23;99021.66;;;17.19;54.01
47280;BME280;34064;44.942;0.008;2023-07-22T05:34:50;99026.03;;;17.20;54.62
47280;BME280;34064;44.942;0.008;2023-07-22T05:37:16;99028.09;;;17.26;54.07
47280;BME280;34064;44.942;0.008;2023-07-22T05:39:42;99022.41;;;17.29;54.46
47280;BME280;34064;44.942;0.008;2023-07-22T05:42:08;99025.47;;;17.34;54.77
47280;BME280;34064;44.942;0.008;2023-07-22T05:44:34;99024.53;;;17.43;54.37
47280;BME280;34064;44.942;0.008;2023-07-22T05:47:00;99016.56;;;17.52;54.21
47280;BME280;34064;44.942;0.008;2023-07-22T05:49:27;99014.59;;;17.62;53.98
47280;BME280;34064;44.942;0.008;2023-07-22T05:51:53;99011.81;;;17.72;54.23
47280;BME280;34064;44.942;0.008;2023-07-22T05:54:20;99016.06;;;17.83;54.04
47280;BME280;34064;44.942;0.008;2023-07-22T05:56:47;99009.06;;;17.90;54.12
47280;BME280;34064;44.942;0.008;2023-07-22T05:59:13;99002.59;;;18.01;54.18
47280;BME280;34064;44.942;0.008;2023-07-22T06:01:39;99004.31;;;18.10;54.06
47280;BME280;34064;44.942;0.008;2023-07-22T06:04:06;99003.19;;;18.21;53.79
47280;BME280;34064;44.942;0.008;2023-07-22T06:06:32;99004.88;;;18.30;54.01
47280;BME280;34064;44.942;0.008;2023-07-22T06:08:58;98994.00;;;18.40;53.78
47280;BME280;34064;44.942;0.008;2023-07-22T06:11:25;98992.16;;;18.49;54.22
47280;BME280;34064;44.942;0.008;2023-07-22T06:13:51;98989.19;;;18.60;53.95
47280;BME280;34064;44.942;0.008;2023-07-22T06:16:17;98996.44;;;18.68;54.64
47280;BME280;34064;44.942;0.008;2023-07-22T06:18:43;98987.19;;;18.79;54.14
47280;BME280;34064;44.942;0.008;2023-07-22T06:21:10;98967.34;;;18.88;54.00
47280;BME280;34064;44.942;0.008;2023-07-22T06:23:36;98968.06;;;18.98;54.31
47280;BME280;34064;44.942;0.008;2023-07-22T06:26:02;98970.56;;;19.08;54.04
47280;BME280;34064;44.942;0.008;2023-07-22T06:28:29;98974.44;;;19.14;54.71
47280;BME280;34064;44.942;0.008;2023-07-22T06:30:55;98974.13;;;19.17;55.23
47280;BME280;34064;44.942;0.008;2023-07-22T06:33:21;98979.50;;;19.25;54.38
47280;BME280;34064;44.942;0.008;2023-07-22T06:35:47;98976.47;;;19.28;54.41
47280;BME280;34064;44.942;0.008;2023-07-22T06:38:13;98975.47;;;19.29;54.59
47280;BME280;34064;44.942;0.008;2023-07-22T06:40:40;98973.44;;;19.31;54.95
47280;BME280;34064;44.942;0.008;2023-07-22T06:43:06;98973.44;;;19.40;54.61
47280;BME280;34064;44.942;0.008;2023-07-22T06:45:32;98962.78;;;19.46;54.64
47280;BME280;34064;44.942;0.008;2023-07-22T06:47:59;98958.91;;;19.57;54.42
47280;BME280;34064;44.942;0.008;2023-07-22T06:50:25;98955.34;;;19.65;54.80
47280;BME280;34064;44.942;0.008;2023-07-22T06:52:51;98940.69;;;19.76;54.34
47280;BME280;34064;44.942;0.008;2023-07-22T06:55:17;98946.88;;;19.85;54.46
47280;BME280;34064;44.942;0.008;2023-07-22T06:57:43;98945.84;;;19.94;54.50
47280;BME280;34064;44.942;0.008;2023-07-22T07:00:10;98952.88;;;20.03;53.89
47280;BME280;34064;44.942;0.008;2023-07-22T07:02:36;98942.75;;;20.14;54.06
47280;BME280;34064;44.942;0.008;2023-07-22T07:05:02;98946.59;;;20.19;54.03
47280;BME280;34064;44.942;0.008;2023-07-22T07:07:29;98949.25;;;20.27;54.11
47280;BME280;34064;44.942;0.008;2023-07-22T07:09:55;98942.78;;;20.37;53.79
47280;BME280;34064;44.942;0.008;2023-07-22T07:12:21;98941.72;;;20.46;53.90
47280;BME280;34064;44.942;0.008;2023-07-22T07:14:49;98939.00;;;20.54;53.76
47280;BME280;34064;44.942;0.008;2023-07-22T07:17:16;98933.34;;;20.64;53.40
47280;BME280;34064;44.942;0.008;2023-07-22T07:19:42;98930.59;;;20.72;53.49
47280;BME280;34064;44.942;0.008;2023-07-22T07:22:08;98934.09;;;20.81;53.44
47280;BME280;34064;44.942;0.008;2023-07-22T07:24:34;98935.03;;;20.88;53.42
47280;BME280;34064;44.942;0.008;2023-07-22T07:27:00;98926.53;;;21.00;53.35
47280;BME280;34064;44.942;0.008;2023-07-22T07:29:26;98921.31;;;21.13;53.24
47280;BME280;34064;44.942;0.008;2023-07-22T07:31:52;98915.28;;;21.26;53.18
47280;BME280;34064;44.942;0.008;2023-07-22T07:34:19;98907.94;;;21.35;52.90
47280;BME280;34064;44.942;0.008;2023-07-22T07:36:45;98912.25;;;21.44;52.82
47280;BME280;34064;44.942;0.008;2023-07-22T07:39:11;98909.81;;;21.49;53.08
47280;BME280;34064;44.942;0.008;2023-07-22T07:41:37;98911.06;;;21.62;52.82
47280;BME280;34064;44.942;0.008;2023-07-22T07:44:04;98909.84;;;21.79;52.67
47280;BME280;34064;44.942;0.008;2023-07-22T07:46:30;98897.28;;;21.87;52.41
47280;BME280;34064;44.942;0.008;2023-07-22T07:48:56;98893.03;;;21.99;52.12
47280;BME280;34064;44.942;0.008;2023-07-22T07:51:23;98884.81;;;22.07;51.82
47280;BME280;34064;44.942;0.008;2023-07-22T07:53:50;98882.47;;;22.19;52.09
47280;BME280;34064;44.942;0.008;2023-07-22T07:56:17;98890.91;;;22.31;51.85
47280;BME280;34064;44.942;0.008;2023-07-22T07:58:44;98885.75;;;22.36;51.42
47280;BME280;34064;44.942;0.008;2023-07-22T08:01:10;98880.06;;;22.46;51.46
47280;BME280;34064;44.942;0.008;2023-07-22T08:03:37;98876.84;;;22.57;51.17
47280;BME280;34064;44.942;0.008;2023-07-22T08:06:04;98885.88;;;22.65;51.07
47280;BME280;34064;44.942;0.008;2023-07-22T08:08:30;98873.03;;;22.73;51.10
47280;BME280;34064;44.942;0.008;2023-07-22T08:10:57;98874.97;;;22.80;50.92
47280;BME280;34064;44.942;0.008;2023-07-22T08:13:23;98874.41;;;22.91;50.74
47280;BME280;34064;44.942;0.008;2023-07-22T08:15:49;98870.72;;;22.99;50.41
47280;BME280;34064;44.942;0.008;2023-07-22T08:18:15;98871.22;;;23.09;49.79
47280;BME280;34064;44.942;0.008;2023-07-22T08:20:41;98875.41;;;23.12;49.90
47280;BME280;34064;44.942;0.008;2023-07-22T08:23:07;98860.69;;;23.21;49.80
47280;BME280;34064;44.942;0.008;2023-07-22T08:25:34;98858.47;;;23.31;49.40
47280;BME280;34064;44.942;0.008;2023-07-22T08:28:00;98857.94;;;23.43;48.84
47280;BME280;34064;44.942;0.008;2023-07-22T08:30:26;98858.78;;;23.50;47.74
47280;BME280;34064;44.942;0.008;2023-07-22T08:32:52;98855.91;;;23.58;47.85
47280;BME280;34064;44.942;0.008;2023-07-22T08:35:18;98851.97;;;23.61;48.07
47280;BME280;34064;44.942;0.008;2023-07-22T08:37:44;98846.00;;;23.79;48.02
47280;BME280;34064;44.942;0.008;2023-07-22T08:40:12;98843.34;;;23.92;47.36
47280;BME280;34064;44.942;0.008;2023-07-22T08:42:39;98840.69;;;24.06;47.01
47280;BME280;34064;44.942;0.008;2023-07-22T08:45:06;98827.81;;;24.21;46.92
47280;BME280;34064;44.942;0.008;2023-07-22T08:47:35;98834.47;;;24.25;46.84
47280;BME280;34064;44.942;0.008;2023-07-22T08:50:04;98825.53;;;24.32;46.48
47280;BME280;34064;44.942;0.008;2023-07-22T08:52:33;98829.28;;;24.44;46.03
47280;BME280;34064;44.942;0.008;2023-07-22T08:54:59;98831.19;;;24.50;46.05
47280;BME280;34064;44.942;0.008;2023-07-22T08:57:27;98828.03;;;24.53;45.76
47280;BME280;34064;44.942;0.008;2023-07-22T08:59:53;98833.13;;;24.70;46.02
47280;BME280;34064;44.942;0.008;2023-07-22T09:02:20;98818.88;;;24.81;45.06
47280;BME280;34064;44.942;0.008;2023-07-22T09:04:46;98819.06;;;25.00;44.69
47280;BME280;34064;44.942;0.008;2023-07-22T09:07:13;98824.91;;;25.03;44.23
47280;BME280;34064;44.942;0.008;2023-07-22T09:09:40;98822.19;;;25.10;44.24
47280;BME280;34064;44.942;0.008;2023-07-22T09:12:07;98816.75;;;25.23;43.59
47280;BME280;34064;44.942;0.008;2023-07-22T09:14:33;98821.53;;;25.28;43.20
47280;BME280;34064;44.942;0.008;2023-07-22T09:17:00;98818.81;;;25.35;43.07
47280;BME280;34064;44.942;0.008;2023-07-22T09:19:26;98812.13;;;25.44;42.65
47280;BME280;34064;44.942;0.008;2023-07-22T09:21:52;98799.94;;;25.53;42.37
47280;BME280;34064;44.942;0.008;2023-07-22T09:24:19;98796.13;;;25.61;42.92
47280;BME280;34064;44.942;0.008;2023-07-22T09:26:46;98783.91;;;25.84;42.57
47280;BME280;34064;44.942;0.008;2023-07-22T09:29:12;98789.44;;;26.09;42.20
47280;BME280;34064;44.942;0.008;2023-07-22T09:31:48;98785.19;;;26.20;41.84
47280;BME280;34064;44.942;0.008;2023-07-22T09:34:15;98781.16;;;26.23;41.24
47280;BME280;34064;44.942;0.008;2023-07-22T09:36:48;98779.06;;;26.25;40.61
47280;BME280;34064;44.942;0.008;2023-07-22T09:39:15;98786.16;;;26.33;40.76
47280;BME280;34064;44.942;0.008;2023-07-22T09:41:41;98778.38;;;26.36;41.12
47280;BME280;34064;44.942;0.008;2023-07-22T09:44:09;98772.63;;;26.44;41.00
47280;BME280;34064;44.942;0.008;2023-07-22T09:46:36;98768.75;;;26.59;40.67
47280;BME280;34064;44.942;0.008;2023-07-22T09:49:03;98764.63;;;26.75;40.61
47280;BME280;34064;44.942;0.008;2023-07-22T09:51:37;98767.94;;;26.84;39.97
47280;BME280;34064;44.942;0.008;2023-07-22T09:54:04;98763.09;;;26.86;39.72
47280;BME280;34064;44.942;0.008;2023-07-22T09:56:30;98767.88;;;26.90;40.10
47280;BME280;34064;44.942;0.008;2023-07-22T09:58:58;98760.84;;;27.01;40.00
47280;BME280;34064;44.942;0.008;2023-07-22T10:01:25;98762.13;;;27.17;39.73
47280;BME280;34064;44.942;0.008;2023-07-22T10:03:54;98752.13;;;27.30;39.73
47280;BME280;34064;44.942;0.008;2023-07-22T10:06:27;98747.81;;;27.40;39.65
47280;BME280;34064;44.942;0.008;2023-07-22T10:08:56;98747.66;;;27.54;39.76
47280;BME280;34064;44.942;0.008;2023-07-22T10:11:27;98741.09;;;27.74;39.29
47280;BME280;34064;44.942;0.008;2023-07-22T10:13:55;98740.91;;;27.87;38.89
47280;BME280;34064;44.942;0.008;2023-07-22T10:16:21;98740.47;;;27.90;39.00
47280;BME280;34064;44.942;0.008;2023-07-22T10:18:48;98747.94;;;27.95;38.26
47280;BME280;34064;44.942;0.008;2023-07-22T10:21:14;98745.25;;;28.07;37.87
47280;BME280;34064;44.942;0.008;2023-07-22T10:23:41;98749.78;;;28.13;37.75
47280;BME280;34064;44.942;0.008;2023-07-22T10:26:07;98744.47;;;28.18;37.93
47280;BME280;34064;44.942;0.008;2023-07-22T10:28:36;98742.00;;;28.28;37.52
47280;BME280;34064;44.942;0.008;2023-07-22T10:31:03;98742.22;;;28.39;37.57
47280;BME280;34064;44.942;0.008;2023-07-22T10:33:29;98737.88;;;28.49;37.55
47280;BME280;34064;44.942;0.008;2023-07-22T10:36:03;98739.53;;;28.51;37.04
47280;BME280;34064;44.942;0.008;2023-07-22T10:38:29;98730.13;;;28.58;37.38
47280;BME280;34064;44.942;0.008;2023-07-22T10:40:55;98724.91;;;28.69;37.00
47280;BME280;34064;44.942;0.008;2023-07-22T10:43:26;98720.06;;;28.83;36.88
47280;BME280;34064;44.942;0.008;2023-07-22T10:45:53;98713.50;;;28.95;36.87
47280;BME280;34064;44.942;0.008;2023-07-22T10:48:20;98710.53;;;29.09;36.65
47280;BME280;34064;44.942;0.008;2023-07-22T10:50:48;98718.13;;;29.19;36.90
47280;BME280;34064;44.942;0.008;2023-07-22T11:06:39;98684.06;;;29.67;35.28
47280;BME280;34064;44.942;0.008;2023-07-22T11:14:29;98696.13;;;29.54;35.27
47280;BME280;34064;44.942;0.008;2023-07-22T11:16:56;98695.25;;;29.66;35.76
47280;BME280;34064;44.942;0.008;2023-07-22T11:19:23;98685.81;;;29.91;34.65
47280;BME280;34064;44.942;0.008;2023-07-22T11:21:50;98683.00;;;29.85;34.73
47280;BME280;34064;44.942;0.008;2023-07-22T11:24:16;98686.34;;;29.87;35.05
47280;BME280;34064;44.942;0.008;2023-07-22T11:26:42;98679.91;;;30.11;34.87
47280;BME280;34064;44.942;0.008;2023-07-22T11:29:09;98666.94;;;30.40;34.92
47280;BME280;34064;44.942;0.008;2023-07-22T11:31:36;98662.97;;;30.65;34.56
47280;BME280;34064;44.942;0.008;2023-07-22T11:34:03;98651.56;;;30.73;34.19
47280;BME280;34064;44.942;0.008;2023-07-22T11:36:30;98665.06;;;30.80;33.84
47280;BME280;34064;44.942;0.008;2023-07-22T11:39:06;98660.59;;;30.74;33.84
47280;BME280;34064;44.942;0.008;2023-07-22T11:41:32;98653.84;;;30.81;32.91
47280;BME280;34064;44.942;0.008;2023-07-22T11:43:59;98649.59;;;30.91;32.91
47280;BME280;34064;44.942;0.008;2023-07-22T11:46:26;98643.19;;;31.07;32.86
47280;BME280;34064;44.942;0.008;2023-07-22T11:48:52;98651.69;;;31.06;32.71
47280;BME280;34064;44.942;0.008;2023-07-22T11:51:20;98658.13;;;30.72;32.81
47280;BME280;34064;44.942;0.008;2023-07-22T11:53:47;98677.75;;;30.30;33.98
47280;BME280;34064;44.942;0.008;2023-07-22T11:56:25;98688.88;;;30.06;34.65
47280;BME280;34064;44.942;0.008;2023-07-22T11:58:52;98686.78;;;29.96;34.55
47280;BME280;34064;44.942;0.008;2023-07-22T12:01:19;98682.88;;;30.09;34.59
47280;BME280;34064;44.942;0.008;2023-07-22T12:03:45;98660.81;;;30.50;34.12
47280;BME280;34064;44.942;0.008;2023-07-22T12:06:12;98641.84;;;30.88;34.37
47280;BME280;34064;44.942;0.008;2023-07-22T12:08:48;98629.94;;;31.21;33.75
47280;BME280;34064;44.942;0.008;2023-07-22T12:11:24;98620.72;;;31.60;33.20
47280;BME280;34064;44.942;0.008;2023-07-22T12:16:35;98614.91;;;31.79;32.32
47280;BME280;34064;44.942;0.008;2023-07-22T12:19:02;98616.50;;;31.74;32.62
47280;BME280;34064;44.942;0.008;2023-07-22T12:21:29;98636.47;;;31.42;32.63
47280;BME280;34064;44.942;0.008;2023-07-22T12:23:55;98628.50;;;31.41;32.06
47280;BME280;34064;44.942;0.008;2023-07-22T12:26:21;98624.81;;;31.57;32.35
47280;BME280;34064;44.942;0.008;2023-07-22T12:28:47;98612.19;;;31.84;32.37
47280;BME280;34064;44.942;0.008;2023-07-22T12:31:13;98598.69;;;32.15;31.84
47280;BME280;34064;44.942;0.008;2023-07-22T12:33:40;98591.31;;;32.20;31.73
47280;BME280;34064;44.942;0.008;2023-07-22T12:36:06;98587.31;;;32.33;31.34
47280;BME280;34064;44.942;0.008;2023-07-22T12:38:32;98592.06;;;32.48;31.69
47280;BME280;34064;44.942;0.008;2023-07-22T12:40:58;98596.97;;;32.09;31.51
47280;BME280;34064;44.942;0.008;2023-07-22T12:43:24;98608.88;;;31.82;32.03
47280;BME280;34064;44.942;0.008;2023-07-22T12:45:50;98593.19;;;32.15;31.44
47280;BME280;34064;44.942;0.008;2023-07-22T12:48:17;98582.03;;;32.32;31.28
47280;BME280;34064;44.942;0.008;2023-07-22T12:50:43;98580.84;;;32.60;30.86
47280;BME280;34064;44.942;0.008;2023-07-22T12:53:09;98578.94;;;32.71;30.58
47280;BME280;34064;44.942;0.008;2023-07-22T12:55:36;98570.00;;;32.96;30.90
47280;BME280;34064;44.942;0.008;2023-07-22T12:58:02;98567.56;;;33.10;29.69
47280;BME280;34064;44.942;0.008;2023-07-22T13:00:28;98566.16;;;33.03;30.25
47280;BME280;34064;44.942;0.008;2023-07-22T13:02:54;98575.19;;;32.88;30.28
47280;BME280;34064;44.942;0.008;2023-07-22T13:05:22;98563.97;;;33.05;29.61
47280;BME280;34064;44.942;0.008;2023-07-22T13:07:49;98570.03;;;33.07;29.69
47280;BME280;34064;44.942;0.008;2023-07-22T13:10:15;98565.63;;;33.16;29.53
47280;BME280;34064;44.942;0.008;2023-07-22T13:12:44;98546.94;;;33.18;29.12
47280;BME280;34064;44.942;0.008;2023-07-22T13:15:10;98545.03;;;33.29;28.90
47280;BME280;34064;44.942;0.008;2023-07-22T13:17:36;98542.59;;;33.48;29.40
47280;BME280;34064;44.942;0.008;2023-07-22T13:20:06;98532.38;;;33.54;29.46